PWSweather.com
Personal Weather Stations
Station Observations
ISARDEGN48
BittiIT 08021

BittiIT 08021

Lat: 40.4805, Lon: 9.3887

Elevation: 1804

Station Type: La Crosse WS2355

http://meteobitti.altervista.org

High Low Average
Temperature 61.0°F16.1°C 39.9°F4.4°C 50.5°F10.3°C
Dew Point 42.3°F5.7°C 23.3°F-4.8°C 34.5°F1.4°C
Winds 13.6 mph 21.9 kmh Calm Calm 2.0 mph E3.2 kmh E
Wind Gusts 17.4 mph28.0 kmh -- 6.0 mph9.7 kmh
Humidity 77% 29% 56%
Pressure 30.68 in1038.9 mb 30.61 in1036.6 mb -
Precipitation 0.00 in0.0 mm - -
Hour Temp Dew Point Humidity Winds Wind Gusts Pressure Precip Precip Rate Daily Precip Total
12:00 AM 43.5°F6.4°C 32.1°F0.1°C 64% Calm Calm 2.5 mph4.0 kmh 30.66 in1038.3 mb 0.00 in0.0 mm 0.00 in0.0 mm 0.00 in0.0 mm
12:05 AM 43.5°F6.4°C 32.1°F0.1°C 64% Calm Calm 2.2 mph3.5 kmh 30.67 in1038.6 mb 0.00 in0.0 mm 0.00 in0.0 mm 0.00 in0.0 mm
12:10 AM 43.5°F6.4°C 32.1°F0.1°C 64% Calm Calm 1.1 mph1.8 kmh 30.66 in1038.3 mb 0.00 in0.0 mm 0.00 in0.0 mm 0.00 in0.0 mm
12:15 AM 43.3°F6.3°C 31.9°F-0.1°C 64% Calm Calm -- 30.66 in1038.3 mb 0.00 in0.0 mm 0.00 in0.0 mm 0.00 in0.0 mm
12:20 AM 43.2°F6.2°C 32.2°F0.1°C 65% Calm Calm -- 30.66 in1038.3 mb 0.00 in0.0 mm 0.00 in0.0 mm 0.00 in0.0 mm
12:25 AM 43.0°F6.1°C 32.4°F0.2°C 66% Calm Calm 0.9 mph1.4 kmh 30.66 in1038.3 mb 0.00 in0.0 mm 0.00 in0.0 mm 0.00 in0.0 mm
12:30 AM 42.6°F5.9°C 32.0°F0.0°C 66% Calm Calm 1.6 mph2.6 kmh 30.66 in1038.3 mb 0.00 in0.0 mm 0.00 in0.0 mm 0.00 in0.0 mm
12:35 AM 42.6°F5.9°C 32.4°F0.2°C 67% Calm Calm 1.6 mph2.6 kmh 30.66 in1038.3 mb 0.00 in0.0 mm 0.00 in0.0 mm 0.00 in0.0 mm
12:40 AM 42.6°F5.9°C 32.0°F0.0°C 66% Calm Calm 2.0 mph3.2 kmh 30.65 in1037.9 mb 0.00 in0.0 mm 0.00 in0.0 mm 0.00 in0.0 mm
12:45 AM 43.0°F6.1°C 32.0°F0.0°C 65% 1.6 mph SW2.6 kmh SW 2.2 mph3.5 kmh 30.65 in1037.9 mb 0.00 in0.0 mm 0.00 in0.0 mm 0.00 in0.0 mm
12:50 AM 43.3°F6.3°C 31.9°F-0.1°C 64% Calm Calm 2.2 mph3.5 kmh 30.65 in1037.9 mb 0.00 in0.0 mm 0.00 in0.0 mm 0.00 in0.0 mm
12:55 AM 43.5°F6.4°C 32.5°F0.3°C 65% Calm Calm 2.0 mph3.2 kmh 30.65 in1037.9 mb 0.00 in0.0 mm 0.00 in0.0 mm 0.00 in0.0 mm
01:00 AM 43.2°F6.2°C 32.2°F0.1°C 65% Calm Calm 0.9 mph1.4 kmh 30.65 in1037.9 mb 0.00 in0.0 mm 0.00 in0.0 mm 0.00 in0.0 mm
01:05 AM 43.0°F6.1°C 32.4°F0.2°C 66% Calm Calm -- 30.65 in1037.9 mb 0.00 in0.0 mm 0.00 in0.0 mm 0.00 in0.0 mm
01:10 AM 42.6°F5.9°C 32.0°F0.0°C 66% Calm Calm 0.9 mph1.4 kmh 30.65 in1037.9 mb 0.00 in0.0 mm 0.00 in0.0 mm 0.00 in0.0 mm
01:15 AM 42.4°F5.8°C 31.9°F-0.1°C 66% Calm Calm 0.9 mph1.4 kmh 30.65 in1037.9 mb 0.00 in0.0 mm 0.00 in0.0 mm 0.00 in0.0 mm
01:20 AM 41.9°F5.5°C 31.7°F-0.2°C 67% Calm Calm 1.3 mph2.1 kmh 30.64 in1037.6 mb 0.00 in0.0 mm 0.00 in0.0 mm 0.00 in0.0 mm
01:25 AM 41.7°F5.4°C 31.5°F-0.3°C 67% Calm Calm 1.3 mph2.1 kmh 30.64 in1037.6 mb 0.00 in0.0 mm 0.00 in0.0 mm 0.00 in0.0 mm
01:30 AM 41.7°F5.4°C 31.9°F-0.1°C 68% Calm Calm -- 30.64 in1037.6 mb 0.00 in0.0 mm 0.00 in0.0 mm 0.00 in0.0 mm
01:35 AM 41.7°F5.4°C 31.9°F-0.1°C 68% Calm Calm -- 30.64 in1037.6 mb 0.00 in0.0 mm 0.00 in0.0 mm 0.00 in0.0 mm
01:40 AM 41.7°F5.4°C 31.9°F-0.1°C 68% Calm Calm -- 30.64 in1037.6 mb 0.00 in0.0 mm 0.00 in0.0 mm 0.00 in0.0 mm
01:45 AM 41.9°F5.5°C 32.5°F0.3°C 69% Calm Calm -- 30.64 in1037.6 mb 0.00 in0.0 mm 0.00 in0.0 mm 0.00 in0.0 mm
01:50 AM 42.1°F5.6°C 32.3°F0.2°C 68% Calm Calm 0.9 mph1.4 kmh 30.64 in1037.6 mb 0.00 in0.0 mm 0.00 in0.0 mm 0.00 in0.0 mm
01:55 AM 42.1°F5.6°C 32.3°F0.2°C 68% Calm Calm 0.9 mph1.4 kmh 30.64 in1037.6 mb 0.00 in0.0 mm 0.00 in0.0 mm 0.00 in0.0 mm
02:00 AM 41.9°F5.5°C 32.1°F0.1°C 68% Calm Calm 0.9 mph1.4 kmh 30.64 in1037.6 mb 0.00 in0.0 mm 0.00 in0.0 mm 0.00 in0.0 mm
02:05 AM 41.7°F5.4°C 31.9°F-0.1°C 68% Calm Calm -- 30.63 in1037.3 mb 0.00 in0.0 mm 0.00 in0.0 mm 0.00 in0.0 mm
02:10 AM 41.5°F5.3°C 31.8°F-0.1°C 68% Calm Calm -- 30.63 in1037.3 mb 0.00 in0.0 mm 0.00 in0.0 mm 0.00 in0.0 mm
02:15 AM 41.4°F5.2°C 32.0°F0.0°C 69% Calm Calm 0.7 mph1.1 kmh 30.63 in1037.3 mb 0.00 in0.0 mm 0.00 in0.0 mm 0.00 in0.0 mm
02:20 AM 41.4°F5.2°C 32.0°F0.0°C 69% Calm Calm 1.6 mph2.6 kmh 30.63 in1037.3 mb 0.00 in0.0 mm 0.00 in0.0 mm 0.00 in0.0 mm
02:25 AM 41.4°F5.2°C 32.0°F0.0°C 69% Calm Calm 1.6 mph2.6 kmh 30.63 in1037.3 mb 0.00 in0.0 mm 0.00 in0.0 mm 0.00 in0.0 mm
02:30 AM 41.0°F5.0°C 31.6°F-0.2°C 69% Calm Calm 2.0 mph3.2 kmh 30.63 in1037.3 mb 0.00 in0.0 mm 0.00 in0.0 mm 0.00 in0.0 mm
02:35 AM 40.8°F4.9°C 31.4°F-0.3°C 69% Calm Calm 2.0 mph3.2 kmh 30.63 in1037.3 mb 0.00 in0.0 mm 0.00 in0.0 mm 0.00 in0.0 mm
02:40 AM 40.8°F4.9°C 31.4°F-0.3°C 69% Calm Calm 1.1 mph1.8 kmh 30.63 in1037.3 mb 0.00 in0.0 mm 0.00 in0.0 mm 0.00 in0.0 mm
02:45 AM 40.8°F4.9°C 31.4°F-0.3°C 69% Calm Calm -- 30.63 in1037.3 mb 0.00 in0.0 mm 0.00 in0.0 mm 0.00 in0.0 mm
02:50 AM 40.5°F4.7°C 31.5°F-0.3°C 70% Calm Calm 1.3 mph2.1 kmh 30.63 in1037.3 mb 0.00 in0.0 mm 0.00 in0.0 mm 0.00 in0.0 mm
02:55 AM 39.9°F4.4°C 30.9°F-0.6°C 70% Calm Calm 1.3 mph2.1 kmh 30.62 in1036.9 mb 0.00 in0.0 mm 0.00 in0.0 mm 0.00 in0.0 mm
03:00 AM 39.9°F4.4°C 31.2°F-0.4°C 71% Calm Calm 0.9 mph1.4 kmh 30.63 in1037.3 mb 0.00 in0.0 mm 0.00 in0.0 mm 0.00 in0.0 mm
03:05 AM 39.9°F4.4°C 31.6°F-0.2°C 72% Calm Calm 2.0 mph3.2 kmh 30.62 in1036.9 mb 0.00 in0.0 mm 0.00 in0.0 mm 0.00 in0.0 mm
03:10 AM 40.3°F4.6°C 31.9°F-0.1°C 72% Calm Calm 2.0 mph3.2 kmh 30.62 in1036.9 mb 0.00 in0.0 mm 0.00 in0.0 mm 0.00 in0.0 mm
03:15 AM 40.6°F4.8°C 32.3°F0.2°C 72% Calm Calm 1.6 mph2.6 kmh 30.62 in1036.9 mb 0.00 in0.0 mm 0.00 in0.0 mm 0.00 in0.0 mm
03:20 AM 40.6°F4.8°C 32.3°F0.2°C 72% Calm Calm -- 30.62 in1036.9 mb 0.00 in0.0 mm 0.00 in0.0 mm 0.00 in0.0 mm
03:25 AM 40.6°F4.8°C 32.3°F0.2°C 72% Calm Calm -- 30.62 in1036.9 mb 0.00 in0.0 mm 0.00 in0.0 mm 0.00 in0.0 mm
03:30 AM 40.5°F4.7°C 32.1°F0.1°C 72% 1.1 mph WSW1.8 kmh WSW 1.1 mph1.8 kmh 30.63 in1037.3 mb 0.00 in0.0 mm 0.00 in0.0 mm 0.00 in0.0 mm
03:35 AM 40.6°F4.8°C 32.6°F0.3°C 73% Calm Calm 1.1 mph1.8 kmh 30.62 in1036.9 mb 0.00 in0.0 mm 0.00 in0.0 mm 0.00 in0.0 mm
03:40 AM 40.6°F4.8°C 32.6°F0.3°C 73% Calm Calm 1.3 mph2.1 kmh 30.62 in1036.9 mb 0.00 in0.0 mm 0.00 in0.0 mm 0.00 in0.0 mm
03:45 AM 40.6°F4.8°C 32.6°F0.3°C 73% Calm Calm 1.3 mph2.1 kmh 30.62 in1036.9 mb 0.00 in0.0 mm 0.00 in0.0 mm 0.00 in0.0 mm
03:50 AM 40.6°F4.8°C 32.9°F0.5°C 74% 1.6 mph SW2.6 kmh SW 1.6 mph2.6 kmh 30.62 in1036.9 mb 0.00 in0.0 mm 0.00 in0.0 mm 0.00 in0.0 mm
03:55 AM 40.8°F4.9°C 33.4°F0.8°C 75% Calm Calm 2.5 mph4.0 kmh 30.62 in1036.9 mb 0.00 in0.0 mm 0.00 in0.0 mm 0.00 in0.0 mm
04:00 AM 41.0°F5.0°C 33.6°F0.9°C 75% Calm Calm 2.7 mph4.3 kmh 30.63 in1037.3 mb 0.00 in0.0 mm 0.00 in0.0 mm 0.00 in0.0 mm
04:05 AM 41.0°F5.0°C 33.3°F0.7°C 74% Calm Calm 2.7 mph4.3 kmh 30.63 in1037.3 mb 0.00 in0.0 mm 0.00 in0.0 mm 0.00 in0.0 mm
04:10 AM 41.2°F5.1°C 33.8°F1.0°C 75% 1.3 mph S2.1 kmh S 2.5 mph4.0 kmh 30.63 in1037.3 mb 0.00 in0.0 mm 0.00 in0.0 mm 0.00 in0.0 mm
04:15 AM 41.4°F5.2°C 33.7°F0.9°C 74% 0.9 mph S1.4 kmh S 2.5 mph4.0 kmh 30.63 in1037.3 mb 0.00 in0.0 mm 0.00 in0.0 mm 0.00 in0.0 mm
04:20 AM 41.9°F5.5°C 33.9°F1.1°C 73% Calm Calm 4.7 mph7.6 kmh 30.63 in1037.3 mb 0.00 in0.0 mm 0.00 in0.0 mm 0.00 in0.0 mm
04:25 AM 41.7°F5.4°C 33.7°F0.9°C 73% Calm Calm 4.7 mph7.6 kmh 30.63 in1037.3 mb 0.00 in0.0 mm 0.00 in0.0 mm 0.00 in0.0 mm
04:30 AM 41.5°F5.3°C 33.5°F0.8°C 73% Calm Calm 1.6 mph2.6 kmh 30.63 in1037.3 mb 0.00 in0.0 mm 0.00 in0.0 mm 0.00 in0.0 mm
04:35 AM 41.5°F5.3°C 33.5°F0.8°C 73% Calm Calm 1.6 mph2.6 kmh 30.63 in1037.3 mb 0.00 in0.0 mm 0.00 in0.0 mm 0.00 in0.0 mm
04:40 AM 41.4°F5.2°C 33.7°F0.9°C 74% Calm Calm 0.9 mph1.4 kmh 30.63 in1037.3 mb 0.00 in0.0 mm 0.00 in0.0 mm 0.00 in0.0 mm
04:45 AM 41.2°F5.1°C 33.8°F1.0°C 75% 0.9 mph SW1.4 kmh SW 1.6 mph2.6 kmh 30.63 in1037.3 mb 0.00 in0.0 mm 0.00 in0.0 mm 0.00 in0.0 mm
04:50 AM 41.2°F5.1°C 33.8°F1.0°C 75% 1.6 mph SW2.6 kmh SW 2.0 mph3.2 kmh 30.63 in1037.3 mb 0.00 in0.0 mm 0.00 in0.0 mm 0.00 in0.0 mm
04:55 AM 41.0°F5.0°C 33.6°F0.9°C 75% Calm Calm 2.0 mph3.2 kmh 30.63 in1037.3 mb 0.00 in0.0 mm 0.00 in0.0 mm 0.00 in0.0 mm
05:00 AM 41.0°F5.0°C 34.3°F1.3°C 77% 1.3 mph S2.1 kmh S 2.0 mph3.2 kmh 30.63 in1037.3 mb 0.00 in0.0 mm 0.00 in0.0 mm 0.00 in0.0 mm
05:05 AM 41.2°F5.1°C 34.1°F1.2°C 76% 1.1 mph S1.8 kmh S 2.2 mph3.5 kmh 30.62 in1036.9 mb 0.00 in0.0 mm 0.00 in0.0 mm 0.00 in0.0 mm
05:10 AM 41.5°F5.3°C 34.5°F1.4°C 76% Calm Calm 2.2 mph3.5 kmh 30.63 in1037.3 mb 0.00 in0.0 mm 0.00 in0.0 mm 0.00 in0.0 mm
05:15 AM 41.7°F5.4°C 34.7°F1.5°C 76% Calm Calm 1.8 mph2.9 kmh 30.62 in1036.9 mb 0.00 in0.0 mm 0.00 in0.0 mm 0.00 in0.0 mm
05:20 AM 41.5°F5.3°C 34.5°F1.4°C 76% Calm Calm 1.6 mph2.6 kmh 30.62 in1036.9 mb 0.00 in0.0 mm 0.00 in0.0 mm 0.00 in0.0 mm
05:25 AM 41.5°F5.3°C 34.5°F1.4°C 76% Calm Calm 2.0 mph3.2 kmh 30.62 in1036.9 mb 0.00 in0.0 mm 0.00 in0.0 mm 0.00 in0.0 mm
05:30 AM 41.2°F5.1°C 33.5°F0.8°C 74% 1.8 mph S2.9 kmh S 3.8 mph6.1 kmh 30.63 in1037.3 mb 0.00 in0.0 mm 0.00 in0.0 mm 0.00 in0.0 mm
05:35 AM 41.5°F5.3°C 33.2°F0.7°C 72% 1.6 mph SSW2.6 kmh SSW 5.1 mph8.2 kmh 30.63 in1037.3 mb 0.00 in0.0 mm 0.00 in0.0 mm 0.00 in0.0 mm
05:40 AM 42.3°F5.7°C 33.6°F0.9°C 71% 3.1 mph SW5.0 kmh SW 5.1 mph8.2 kmh 30.62 in1036.9 mb 0.00 in0.0 mm 0.00 in0.0 mm 0.00 in0.0 mm
05:45 AM 42.6°F5.9°C 33.6°F0.9°C 70% 1.6 mph SW2.6 kmh SW 6.7 mph10.8 kmh 30.63 in1037.3 mb 0.00 in0.0 mm 0.00 in0.0 mm 0.00 in0.0 mm
05:50 AM 42.8°F6.0°C 33.8°F1.0°C 70% 5.1 mph SW8.2 kmh SW 6.7 mph10.8 kmh 30.62 in1036.9 mb 0.00 in0.0 mm 0.00 in0.0 mm 0.00 in0.0 mm
05:55 AM 43.0°F6.1°C 34.0°F1.1°C 70% 1.6 mph SW2.6 kmh SW 5.8 mph9.3 kmh 30.62 in1036.9 mb 0.00 in0.0 mm 0.00 in0.0 mm 0.00 in0.0 mm
06:00 AM 43.0°F6.1°C 33.6°F0.9°C 69% Calm Calm 4.9 mph7.9 kmh 30.61 in1036.6 mb 0.00 in0.0 mm 0.00 in0.0 mm 0.00 in0.0 mm
06:05 AM 42.6°F5.9°C 33.2°F0.7°C 69% Calm Calm 2.9 mph4.7 kmh 30.62 in1036.9 mb 0.00 in0.0 mm 0.00 in0.0 mm 0.00 in0.0 mm
06:10 AM 42.4°F5.8°C 33.0°F0.6°C 69% 0.9 mph S1.4 kmh S 2.0 mph3.2 kmh 30.62 in1036.9 mb 0.00 in0.0 mm 0.00 in0.0 mm 0.00 in0.0 mm
06:15 AM 42.1°F5.6°C 32.7°F0.4°C 69% Calm Calm 2.2 mph3.5 kmh 30.62 in1036.9 mb 0.00 in0.0 mm 0.00 in0.0 mm 0.00 in0.0 mm
06:25 AM 42.1°F5.6°C 31.9°F-0.1°C 67% 2.0 mph S3.2 kmh S 2.9 mph4.7 kmh 30.63 in1037.3 mb 0.00 in0.0 mm 0.00 in0.0 mm 0.00 in0.0 mm
06:30 AM 42.1°F5.6°C 31.5°F-0.3°C 66% 1.1 mph S1.8 kmh S 2.9 mph4.7 kmh 30.63 in1037.3 mb 0.00 in0.0 mm 0.00 in0.0 mm 0.00 in0.0 mm
06:35 AM 42.4°F5.8°C 31.5°F-0.3°C 65% Calm Calm 2.5 mph4.0 kmh 30.63 in1037.3 mb 0.00 in0.0 mm 0.00 in0.0 mm 0.00 in0.0 mm
06:40 AM 42.6°F5.9°C 32.0°F0.0°C 66% Calm Calm 2.5 mph4.0 kmh 30.63 in1037.3 mb 0.00 in0.0 mm 0.00 in0.0 mm 0.00 in0.0 mm
06:45 AM 42.6°F5.9°C 32.8°F0.4°C 68% Calm Calm 1.3 mph2.1 kmh 30.63 in1037.3 mb 0.00 in0.0 mm 0.00 in0.0 mm 0.00 in0.0 mm
06:50 AM 42.6°F5.9°C 33.2°F0.7°C 69% Calm Calm -- 30.63 in1037.3 mb 0.00 in0.0 mm 0.00 in0.0 mm 0.00 in0.0 mm
06:55 AM 42.4°F5.8°C 33.0°F0.6°C 69% Calm Calm -- 30.64 in1037.6 mb 0.00 in0.0 mm 0.00 in0.0 mm 0.00 in0.0 mm
07:00 AM 42.4°F5.8°C 33.0°F0.6°C 69% Calm Calm -- 30.64 in1037.6 mb 0.00 in0.0 mm 0.00 in0.0 mm 0.00 in0.0 mm
07:05 AM 42.1°F5.6°C 32.7°F0.4°C 69% Calm Calm 1.1 mph1.8 kmh 30.64 in1037.6 mb 0.00 in0.0 mm 0.00 in0.0 mm 0.00 in0.0 mm
07:10 AM 42.4°F5.8°C 31.5°F-0.3°C 65% 1.3 mph S2.1 kmh S 2.2 mph3.5 kmh 30.64 in1037.6 mb 0.00 in0.0 mm 0.00 in0.0 mm 0.00 in0.0 mm
07:15 AM 43.0°F6.1°C 31.2°F-0.4°C 63% 1.8 mph S2.9 kmh S 3.1 mph5.0 kmh 30.64 in1037.6 mb 0.00 in0.0 mm 0.00 in0.0 mm 0.00 in0.0 mm
07:20 AM 43.5°F6.4°C 31.7°F-0.2°C 63% 2.2 mph SSW3.5 kmh SSW 3.4 mph5.5 kmh 30.64 in1037.6 mb 0.00 in0.0 mm 0.00 in0.0 mm 0.00 in0.0 mm
07:25 AM 43.9°F6.6°C 30.9°F-0.6°C 60% 2.0 mph SSW3.2 kmh SSW 4.5 mph7.2 kmh 30.64 in1037.6 mb 0.00 in0.0 mm 0.00 in0.0 mm 0.00 in0.0 mm
07:30 AM 45.0°F7.2°C 31.5°F-0.3°C 59% 2.5 mph SSW4.0 kmh SSW 4.5 mph7.2 kmh 30.64 in1037.6 mb 0.00 in0.0 mm 0.00 in0.0 mm 0.00 in0.0 mm
07:35 AM 45.7°F7.6°C 30.8°F-0.7°C 56% 2.0 mph S3.2 kmh S 5.1 mph8.2 kmh 30.64 in1037.6 mb 0.00 in0.0 mm 0.00 in0.0 mm 0.00 in0.0 mm
07:40 AM 46.2°F7.9°C 30.4°F-0.9°C 54% 1.8 mph SSW2.9 kmh SSW 5.1 mph8.2 kmh 30.64 in1037.6 mb 0.00 in0.0 mm 0.00 in0.0 mm 0.00 in0.0 mm
07:45 AM 46.8°F8.2°C 30.9°F-0.6°C 54% 1.1 mph SSW1.8 kmh SSW 4.5 mph7.2 kmh 30.64 in1037.6 mb 0.00 in0.0 mm 0.00 in0.0 mm 0.00 in0.0 mm
07:50 AM 47.1°F8.4°C 30.8°F-0.7°C 53% Calm Calm 3.8 mph6.1 kmh 30.64 in1037.6 mb 0.00 in0.0 mm 0.00 in0.0 mm 0.00 in0.0 mm
07:55 AM 47.5°F8.6°C 30.6°F-0.8°C 52% Calm Calm 2.7 mph4.3 kmh 30.64 in1037.6 mb 0.00 in0.0 mm 0.00 in0.0 mm 0.00 in0.0 mm
08:00 AM 48.4°F9.1°C 31.9°F-0.1°C 53% Calm Calm 2.2 mph3.5 kmh 30.64 in1037.6 mb 0.00 in0.0 mm 0.00 in0.0 mm 0.00 in0.0 mm
08:05 AM 48.7°F9.3°C 31.4°F-0.3°C 51% 1.6 mph SSW2.6 kmh SSW 2.9 mph4.7 kmh 30.64 in1037.6 mb 0.00 in0.0 mm 0.00 in0.0 mm 0.00 in0.0 mm
08:10 AM 48.9°F9.4°C 30.0°F-1.1°C 48% 1.8 mph S2.9 kmh S 4.5 mph7.2 kmh 30.64 in1037.6 mb 0.00 in0.0 mm 0.00 in0.0 mm 0.00 in0.0 mm
08:15 AM 48.9°F9.4°C 31.1°F-0.5°C 50% Calm Calm 4.5 mph7.2 kmh 30.64 in1037.6 mb 0.00 in0.0 mm 0.00 in0.0 mm 0.00 in0.0 mm
08:20 AM 48.9°F9.4°C 31.1°F-0.5°C 50% Calm Calm 1.8 mph2.9 kmh 30.64 in1037.6 mb 0.00 in0.0 mm 0.00 in0.0 mm 0.00 in0.0 mm
08:25 AM 48.7°F9.3°C 30.4°F-0.9°C 49% Calm Calm 1.8 mph2.9 kmh 30.64 in1037.6 mb 0.00 in0.0 mm 0.00 in0.0 mm 0.00 in0.0 mm
08:30 AM 48.7°F9.3°C 29.3°F-1.5°C 47% Calm Calm 3.8 mph6.1 kmh 30.64 in1037.6 mb 0.00 in0.0 mm 0.00 in0.0 mm 0.00 in0.0 mm
08:35 AM 49.1°F9.5°C 29.6°F-1.3°C 47% Calm Calm 3.8 mph6.1 kmh 30.64 in1037.6 mb 0.00 in0.0 mm 0.00 in0.0 mm 0.00 in0.0 mm
08:40 AM 49.8°F9.9°C 29.8°F-1.2°C 46% 1.1 mph SSE1.8 kmh SSE 3.1 mph5.0 kmh 30.64 in1037.6 mb 0.00 in0.0 mm 0.00 in0.0 mm 0.00 in0.0 mm
08:45 AM 50.7°F10.4°C 30.6°F-0.8°C 46% Calm Calm 3.1 mph5.0 kmh 30.64 in1037.6 mb 0.00 in0.0 mm 0.00 in0.0 mm 0.00 in0.0 mm
08:50 AM 51.4°F10.8°C 30.1°F-1.1°C 44% Calm Calm 2.7 mph4.3 kmh 30.64 in1037.6 mb 0.00 in0.0 mm 0.00 in0.0 mm 0.00 in0.0 mm
08:55 AM 52.5°F11.4°C 31.7°F-0.2°C 45% 1.6 mph ENE2.6 kmh ENE 2.5 mph4.0 kmh 30.64 in1037.6 mb 0.00 in0.0 mm 0.00 in0.0 mm 0.00 in0.0 mm
09:00 AM 52.3°F11.3°C 30.4°F-0.9°C 43% 3.6 mph NE5.8 kmh NE 6.0 mph9.7 kmh 30.64 in1037.6 mb 0.00 in0.0 mm 0.00 in0.0 mm 0.00 in0.0 mm
09:05 AM 51.6°F10.9°C 28.1°F-2.2°C 40% 5.1 mph NE8.2 kmh NE 7.6 mph12.2 kmh 30.64 in1037.6 mb 0.00 in0.0 mm 0.00 in0.0 mm 0.00 in0.0 mm
09:10 AM 51.6°F10.9°C 26.0°F-3.3°C 37% 4.5 mph NE7.2 kmh NE 9.2 mph14.8 kmh 30.64 in1037.6 mb 0.00 in0.0 mm 0.00 in0.0 mm 0.00 in0.0 mm
09:15 AM 51.6°F10.9°C 26.7°F-2.9°C 38% 2.9 mph NE4.7 kmh NE 9.2 mph14.8 kmh 30.64 in1037.6 mb 0.00 in0.0 mm 0.00 in0.0 mm 0.00 in0.0 mm
09:20 AM 51.6°F10.9°C 26.0°F-3.3°C 37% 3.8 mph NE6.1 kmh NE 8.9 mph14.3 kmh 30.64 in1037.6 mb 0.00 in0.0 mm 0.00 in0.0 mm 0.00 in0.0 mm
09:25 AM 52.0°F11.1°C 27.7°F-2.4°C 39% 5.4 mph NE8.7 kmh NE 8.7 mph14.0 kmh 30.64 in1037.6 mb 0.00 in0.0 mm 0.00 in0.0 mm 0.00 in0.0 mm
09:30 AM 52.3°F11.3°C 28.7°F-1.8°C 40% 3.6 mph NE5.8 kmh NE 7.4 mph11.9 kmh 30.65 in1037.9 mb 0.00 in0.0 mm 0.00 in0.0 mm 0.00 in0.0 mm
09:35 AM 52.3°F11.3°C 26.0°F-3.3°C 36% 6.3 mph NE10.1 kmh NE 9.2 mph14.8 kmh 30.64 in1037.6 mb 0.00 in0.0 mm 0.00 in0.0 mm 0.00 in0.0 mm
09:40 AM 52.9°F11.6°C 26.5°F-3.1°C 36% 4.3 mph NE6.9 kmh NE 9.8 mph15.8 kmh 30.65 in1037.9 mb 0.00 in0.0 mm 0.00 in0.0 mm 0.00 in0.0 mm
09:45 AM 53.2°F11.8°C 27.5°F-2.5°C 35% 4.0 mph NE6.4 kmh NE 9.8 mph15.8 kmh 30.65 in1037.9 mb 0.00 in0.0 mm 0.00 in0.0 mm 0.00 in0.0 mm
09:50 AM 53.4°F11.9°C 26.3°F-3.2°C 35% 4.7 mph NE7.6 kmh NE 8.5 mph13.7 kmh 30.65 in1037.9 mb 0.00 in0.0 mm 0.00 in0.0 mm 0.00 in0.0 mm
09:55 AM 53.4°F11.9°C 24.9°F-3.9°C 33% 5.1 mph NE8.2 kmh NE 8.9 mph14.3 kmh 30.65 in1037.9 mb 0.00 in0.0 mm 0.00 in0.0 mm 0.00 in0.0 mm
10:00 AM 53.4°F11.9°C 24.9°F-3.9°C 33% 3.6 mph NE5.8 kmh NE 8.9 mph14.3 kmh 30.65 in1037.9 mb 0.00 in0.0 mm 0.00 in0.0 mm 0.00 in0.0 mm
10:05 AM 53.4°F11.9°C 26.3°F-3.2°C 35% 3.8 mph NE6.1 kmh NE 10.5 mph16.9 kmh 30.65 in1037.9 mb 0.00 in0.0 mm 0.00 in0.0 mm 0.00 in0.0 mm
10:10 AM 53.8°F12.1°C 25.9°F-3.4°C 34% 3.8 mph NE6.1 kmh NE 10.5 mph16.9 kmh 30.66 in1038.3 mb 0.00 in0.0 mm 0.00 in0.0 mm 0.00 in0.0 mm
10:15 AM 53.8°F12.1°C 25.9°F-3.4°C 34% Calm Calm 9.6 mph15.4 kmh 30.66 in1038.3 mb 0.00 in0.0 mm 0.00 in0.0 mm 0.00 in0.0 mm
10:20 AM 54.1°F12.3°C 25.5°F-3.6°C 33% 0.7 mph NE1.1 kmh NE 9.6 mph15.4 kmh 30.66 in1038.3 mb 0.00 in0.0 mm 0.00 in0.0 mm 0.00 in0.0 mm
10:25 AM 54.9°F12.7°C 25.4°F-3.7°C 32% Calm Calm 7.2 mph11.6 kmh 30.66 in1038.3 mb 0.00 in0.0 mm 0.00 in0.0 mm 0.00 in0.0 mm
10:30 AM 55.2°F12.9°C 25.7°F-3.5°C 32% 2.2 mph NE3.5 kmh NE 7.6 mph12.2 kmh 30.66 in1038.3 mb 0.00 in0.0 mm 0.00 in0.0 mm 0.00 in0.0 mm
10:35 AM 55.2°F12.9°C 23.3°F-4.8°C 29% 4.0 mph NE6.4 kmh NE 9.2 mph14.8 kmh 30.66 in1038.3 mb 0.00 in0.0 mm 0.00 in0.0 mm 0.00 in0.0 mm
10:40 AM 55.4°F13.0°C 25.1°F-3.8°C 31% 2.2 mph NE3.5 kmh NE 9.2 mph14.8 kmh 30.66 in1038.3 mb 0.00 in0.0 mm 0.00 in0.0 mm 0.00 in0.0 mm
10:45 AM 55.8°F13.2°C 25.5°F-3.6°C 31% Calm Calm 7.4 mph11.9 kmh 30.66 in1038.3 mb 0.00 in0.0 mm 0.00 in0.0 mm 0.00 in0.0 mm
10:50 AM 55.6°F13.1°C 24.6°F-4.1°C 30% 2.9 mph NE4.7 kmh NE 8.7 mph14.0 kmh 30.66 in1038.3 mb 0.00 in0.0 mm 0.00 in0.0 mm 0.00 in0.0 mm
10:55 AM 55.0°F12.8°C 24.8°F-4.0°C 31% 6.5 mph NE10.5 kmh NE 11.0 mph17.7 kmh 30.66 in1038.3 mb 0.00 in0.0 mm 0.00 in0.0 mm 0.00 in0.0 mm
11:00 AM 54.7°F12.6°C 24.5°F-4.2°C 31% 2.2 mph NE3.5 kmh NE 11.0 mph17.7 kmh 30.66 in1038.3 mb 0.00 in0.0 mm 0.00 in0.0 mm 0.00 in0.0 mm
11:05 AM 54.7°F12.6°C 24.5°F-4.2°C 31% 5.8 mph NE9.3 kmh NE 9.4 mph15.1 kmh 30.65 in1037.9 mb 0.00 in0.0 mm 0.00 in0.0 mm 0.00 in0.0 mm
11:10 AM 54.7°F12.6°C 25.3°F-3.7°C 32% 1.6 mph NE2.6 kmh NE 8.7 mph14.0 kmh 30.65 in1037.9 mb 0.00 in0.0 mm 0.00 in0.0 mm 0.00 in0.0 mm
11:15 AM 55.2°F12.9°C 27.1°F-2.7°C 34% 2.5 mph E4.0 kmh E 6.3 mph10.1 kmh 30.66 in1038.3 mb 0.00 in0.0 mm 0.00 in0.0 mm 0.00 in0.0 mm
11:20 AM 55.2°F12.9°C 28.5°F-1.9°C 36% 3.1 mph E5.0 kmh E 6.3 mph10.1 kmh 30.66 in1038.3 mb 0.00 in0.0 mm 0.00 in0.0 mm 0.00 in0.0 mm
11:25 AM 55.2°F12.9°C 28.5°F-1.9°C 36% 3.6 mph NE5.8 kmh NE 5.1 mph8.2 kmh 30.66 in1038.3 mb 0.00 in0.0 mm 0.00 in0.0 mm 0.00 in0.0 mm
11:30 AM 55.6°F13.1°C 29.5°F-1.4°C 37% 7.4 mph NE11.9 kmh NE 8.1 mph13.0 kmh 30.66 in1038.3 mb 0.00 in0.0 mm 0.00 in0.0 mm 0.00 in0.0 mm
11:35 AM 55.8°F13.2°C 29.7°F-1.3°C 37% 8.5 mph NE13.7 kmh NE 11.6 mph18.7 kmh 30.66 in1038.3 mb 0.00 in0.0 mm 0.00 in0.0 mm 0.00 in0.0 mm
11:40 AM 55.9°F13.3°C 29.8°F-1.2°C 37% 3.4 mph NE5.5 kmh NE 11.6 mph18.7 kmh 30.65 in1037.9 mb 0.00 in0.0 mm 0.00 in0.0 mm 0.00 in0.0 mm
11:45 AM 56.1°F13.4°C 30.0°F-1.1°C 37% 4.3 mph NE6.9 kmh NE 8.7 mph14.0 kmh 30.65 in1037.9 mb 0.00 in0.0 mm 0.00 in0.0 mm 0.00 in0.0 mm
11:50 AM 55.9°F13.3°C 30.5°F-0.8°C 38% 5.6 mph ENE9.0 kmh ENE 8.9 mph14.3 kmh 30.65 in1037.9 mb 0.00 in0.0 mm 0.00 in0.0 mm 0.00 in0.0 mm
11:55 AM 55.9°F13.3°C 30.5°F-0.8°C 38% 4.0 mph ENE6.4 kmh ENE 8.9 mph14.3 kmh 30.65 in1037.9 mb 0.00 in0.0 mm 0.00 in0.0 mm 0.00 in0.0 mm
12:00 PM 55.8°F13.2°C 29.7°F-1.3°C 37% 4.7 mph ENE7.6 kmh ENE 8.9 mph14.3 kmh 30.65 in1037.9 mb 0.00 in0.0 mm 0.00 in0.0 mm 0.00 in0.0 mm
12:05 PM 55.9°F13.3°C 29.1°F-1.6°C 36% 5.8 mph ENE9.3 kmh ENE 7.4 mph11.9 kmh 30.65 in1037.9 mb 0.00 in0.0 mm 0.00 in0.0 mm 0.00 in0.0 mm
12:10 PM 55.8°F13.2°C 30.4°F-0.9°C 38% 3.8 mph NE6.1 kmh NE 8.1 mph13.0 kmh 30.65 in1037.9 mb 0.00 in0.0 mm 0.00 in0.0 mm 0.00 in0.0 mm
12:15 PM 55.9°F13.3°C 31.2°F-0.4°C 39% 4.0 mph NE6.4 kmh NE 8.1 mph13.0 kmh 30.65 in1037.9 mb 0.00 in0.0 mm 0.00 in0.0 mm 0.00 in0.0 mm
12:20 PM 56.5°F13.6°C 30.3°F-0.9°C 37% 1.8 mph NE2.9 kmh NE 7.4 mph11.9 kmh 30.65 in1037.9 mb 0.00 in0.0 mm 0.00 in0.0 mm 0.00 in0.0 mm
12:25 PM 57.0°F13.9°C 31.5°F-0.3°C 38% 0.9 mph NE1.4 kmh NE 5.1 mph8.2 kmh 30.64 in1037.6 mb 0.00 in0.0 mm 0.00 in0.0 mm 0.00 in0.0 mm
12:30 PM 57.0°F13.9°C 30.8°F-0.7°C 37% 3.8 mph NNE6.1 kmh NNE 9.6 mph15.4 kmh 30.64 in1037.6 mb 0.00 in0.0 mm 0.00 in0.0 mm 0.00 in0.0 mm
12:35 PM 57.4°F14.1°C 30.4°F-0.9°C 36% 2.7 mph NNE4.3 kmh NNE 9.6 mph15.4 kmh 30.64 in1037.6 mb 0.00 in0.0 mm 0.00 in0.0 mm 0.00 in0.0 mm
12:40 PM 57.4°F14.1°C 30.4°F-0.9°C 36% Calm Calm 6.9 mph11.1 kmh 30.64 in1037.6 mb 0.00 in0.0 mm 0.00 in0.0 mm 0.00 in0.0 mm
12:45 PM 57.9°F14.4°C 31.6°F-0.2°C 37% 2.2 mph NNE3.5 kmh NNE 6.9 mph11.1 kmh 30.64 in1037.6 mb 0.00 in0.0 mm 0.00 in0.0 mm 0.00 in0.0 mm
12:50 PM 57.7°F14.3°C 31.5°F-0.3°C 37% Calm Calm 6.3 mph10.1 kmh 30.64 in1037.6 mb 0.00 in0.0 mm 0.00 in0.0 mm 0.00 in0.0 mm
12:55 PM 57.9°F14.4°C 31.6°F-0.2°C 37% 3.1 mph NE5.0 kmh NE 6.0 mph9.7 kmh 30.64 in1037.6 mb 0.00 in0.0 mm 0.00 in0.0 mm 0.00 in0.0 mm
01:00 PM 57.9°F14.4°C 30.2°F-1.0°C 36% 3.8 mph NE6.1 kmh NE 6.5 mph10.5 kmh 30.64 in1037.6 mb 0.00 in0.0 mm 0.00 in0.0 mm 0.00 in0.0 mm
01:05 PM 58.3°F14.6°C 31.2°F-0.4°C 36% 2.9 mph NE4.7 kmh NE 6.5 mph10.5 kmh 30.64 in1037.6 mb 0.00 in0.0 mm 0.00 in0.0 mm 0.00 in0.0 mm
01:10 PM 58.5°F14.7°C 30.7°F-0.7°C 35% 2.5 mph ENE4.0 kmh ENE 3.1 mph5.0 kmh 30.64 in1037.6 mb 0.00 in0.0 mm 0.00 in0.0 mm 0.00 in0.0 mm
01:15 PM 58.6°F14.8°C 30.9°F-0.6°C 35% 2.2 mph NNW3.5 kmh NNW 3.1 mph5.0 kmh 30.64 in1037.6 mb 0.00 in0.0 mm 0.00 in0.0 mm 0.00 in0.0 mm
01:20 PM 58.8°F14.9°C 31.0°F-0.6°C 35% 2.5 mph WSW4.0 kmh WSW 3.8 mph6.1 kmh 30.63 in1037.3 mb 0.00 in0.0 mm 0.00 in0.0 mm 0.00 in0.0 mm
01:25 PM 59.2°F15.1°C 31.3°F-0.4°C 35% Calm Calm 4.9 mph7.9 kmh 30.63 in1037.3 mb 0.00 in0.0 mm 0.00 in0.0 mm 0.00 in0.0 mm
01:30 PM 59.5°F15.3°C 31.6°F-0.2°C 35% 3.8 mph S6.1 kmh S 4.9 mph7.9 kmh 30.63 in1037.3 mb 0.00 in0.0 mm 0.00 in0.0 mm 0.00 in0.0 mm
01:35 PM 58.8°F14.9°C 29.6°F-1.3°C 33% 4.3 mph NE6.9 kmh NE 5.8 mph9.3 kmh 30.63 in1037.3 mb 0.00 in0.0 mm 0.00 in0.0 mm 0.00 in0.0 mm
01:40 PM 59.5°F15.3°C 30.9°F-0.6°C 34% 1.6 mph NE2.6 kmh NE 5.8 mph9.3 kmh 30.63 in1037.3 mb 0.00 in0.0 mm 0.00 in0.0 mm 0.00 in0.0 mm
01:45 PM 60.4°F15.8°C 32.4°F0.2°C 35% 3.8 mph NE6.1 kmh NE 3.8 mph6.1 kmh 30.63 in1037.3 mb 0.00 in0.0 mm 0.00 in0.0 mm 0.00 in0.0 mm
01:50 PM 61.0°F16.1°C 33.6°F0.9°C 36% 1.3 mph ESE2.1 kmh ESE 7.6 mph12.2 kmh 30.63 in1037.3 mb 0.00 in0.0 mm 0.00 in0.0 mm 0.00 in0.0 mm
01:55 PM 60.6°F15.9°C 33.3°F0.7°C 36% 2.0 mph S3.2 kmh S 8.9 mph14.3 kmh 30.62 in1036.9 mb 0.00 in0.0 mm 0.00 in0.0 mm 0.00 in0.0 mm
02:00 PM 59.5°F15.3°C 33.8°F1.0°C 38% 3.1 mph SSW5.0 kmh SSW 8.9 mph14.3 kmh 30.62 in1036.9 mb 0.00 in0.0 mm 0.00 in0.0 mm 0.00 in0.0 mm
02:05 PM 58.8°F14.9°C 33.8°F1.0°C 39% 1.3 mph SW2.1 kmh SW 8.1 mph13.0 kmh 30.62 in1036.9 mb 0.00 in0.0 mm 0.00 in0.0 mm 0.00 in0.0 mm
02:10 PM 59.2°F15.1°C 34.1°F1.2°C 39% 2.2 mph SW3.5 kmh SW 5.8 mph9.3 kmh 30.62 in1036.9 mb 0.00 in0.0 mm 0.00 in0.0 mm 0.00 in0.0 mm
02:15 PM 59.0°F15.0°C 34.0°F1.1°C 39% 1.6 mph ESE2.6 kmh ESE 4.0 mph6.4 kmh 30.62 in1036.9 mb 0.00 in0.0 mm 0.00 in0.0 mm 0.00 in0.0 mm
02:20 PM 59.0°F15.0°C 34.0°F1.1°C 39% 4.3 mph NE6.9 kmh NE 6.5 mph10.5 kmh 30.62 in1036.9 mb 0.00 in0.0 mm 0.00 in0.0 mm 0.00 in0.0 mm
02:25 PM 58.8°F14.9°C 35.1°F1.7°C 41% 5.1 mph NE8.2 kmh NE 6.9 mph11.1 kmh 30.62 in1036.9 mb 0.00 in0.0 mm 0.00 in0.0 mm 0.00 in0.0 mm
02:30 PM 58.6°F14.8°C 35.0°F1.7°C 41% 4.5 mph NE7.2 kmh NE 6.9 mph11.1 kmh 30.62 in1036.9 mb 0.00 in0.0 mm 0.00 in0.0 mm 0.00 in0.0 mm
02:35 PM 58.3°F14.6°C 34.6°F1.4°C 41% 1.1 mph NE1.8 kmh NE 5.8 mph9.3 kmh 30.62 in1036.9 mb 0.00 in0.0 mm 0.00 in0.0 mm 0.00 in0.0 mm
02:40 PM 58.5°F14.7°C 35.4°F1.9°C 42% 2.5 mph E4.0 kmh E 4.9 mph7.9 kmh 30.62 in1036.9 mb 0.00 in0.0 mm 0.00 in0.0 mm 0.00 in0.0 mm
02:45 PM 58.6°F14.8°C 35.5°F1.9°C 42% 3.6 mph E5.8 kmh E 5.4 mph8.7 kmh 30.62 in1036.9 mb 0.00 in0.0 mm 0.00 in0.0 mm 0.00 in0.0 mm
02:50 PM 58.6°F14.8°C 36.1°F2.3°C 43% 1.6 mph E2.6 kmh E 5.8 mph9.3 kmh 30.62 in1036.9 mb 0.00 in0.0 mm 0.00 in0.0 mm 0.00 in0.0 mm
02:55 PM 58.6°F14.8°C 38.4°F3.6°C 47% 2.7 mph E4.3 kmh E 5.8 mph9.3 kmh 30.62 in1036.9 mb 0.00 in0.0 mm 0.00 in0.0 mm 0.00 in0.0 mm
03:00 PM 58.6°F14.8°C 39.0°F3.9°C 48% 6.3 mph NE10.1 kmh NE 7.6 mph12.2 kmh 30.62 in1036.9 mb 0.00 in0.0 mm 0.00 in0.0 mm 0.00 in0.0 mm
03:05 PM 58.3°F14.6°C 38.1°F3.4°C 47% Calm Calm 7.6 mph12.2 kmh 30.62 in1036.9 mb 0.00 in0.0 mm 0.00 in0.0 mm 0.00 in0.0 mm
03:10 PM 58.3°F14.6°C 37.5°F3.1°C 47% Calm Calm 7.6 mph12.2 kmh 30.62 in1036.9 mb 0.00 in0.0 mm 0.00 in0.0 mm 0.00 in0.0 mm
03:15 PM 58.6°F14.8°C 38.4°F3.6°C 47% 5.8 mph NE9.3 kmh NE 6.3 mph10.1 kmh 30.62 in1036.9 mb 0.00 in0.0 mm 0.00 in0.0 mm 0.00 in0.0 mm
03:20 PM 58.5°F14.7°C 38.8°F3.8°C 48% 3.1 mph NNE5.0 kmh NNE 6.7 mph10.8 kmh 30.62 in1036.9 mb 0.00 in0.0 mm 0.00 in0.0 mm 0.00 in0.0 mm
03:25 PM 58.6°F14.8°C 39.0°F3.9°C 48% 3.1 mph NNE5.0 kmh NNE 6.7 mph10.8 kmh 30.62 in1036.9 mb 0.00 in0.0 mm 0.00 in0.0 mm 0.00 in0.0 mm
03:30 PM 58.6°F14.8°C 39.0°F3.9°C 48% Calm Calm 6.5 mph10.5 kmh 30.62 in1036.9 mb 0.00 in0.0 mm 0.00 in0.0 mm 0.00 in0.0 mm
03:35 PM 58.6°F14.8°C 39.6°F4.2°C 49% 2.7 mph ENE4.3 kmh ENE 4.7 mph7.6 kmh 30.62 in1036.9 mb 0.00 in0.0 mm 0.00 in0.0 mm 0.00 in0.0 mm
03:40 PM 58.6°F14.8°C 39.0°F3.9°C 48% 1.3 mph NE2.1 kmh NE 4.9 mph7.9 kmh 30.62 in1036.9 mb 0.00 in0.0 mm 0.00 in0.0 mm 0.00 in0.0 mm
03:45 PM 58.3°F14.6°C 39.8°F4.3°C 50% 3.8 mph NE6.1 kmh NE 5.8 mph9.3 kmh 30.62 in1036.9 mb 0.00 in0.0 mm 0.00 in0.0 mm 0.00 in0.0 mm
03:50 PM 57.9°F14.4°C 39.5°F4.2°C 50% 3.4 mph NE5.5 kmh NE 6.5 mph10.5 kmh 30.63 in1037.3 mb 0.00 in0.0 mm 0.00 in0.0 mm 0.00 in0.0 mm
03:55 PM 57.9°F14.4°C 39.5°F4.2°C 50% 2.7 mph ENE4.3 kmh ENE 6.5 mph10.5 kmh 30.63 in1037.3 mb 0.00 in0.0 mm 0.00 in0.0 mm 0.00 in0.0 mm
04:00 PM 57.9°F14.4°C 40.0°F4.4°C 51% 1.1 mph E1.8 kmh E 4.9 mph7.9 kmh 30.63 in1037.3 mb 0.00 in0.0 mm 0.00 in0.0 mm 0.00 in0.0 mm
04:05 PM 57.7°F14.3°C 40.7°F4.8°C 53% 2.0 mph S3.2 kmh S 5.4 mph8.7 kmh 30.63 in1037.3 mb 0.00 in0.0 mm 0.00 in0.0 mm 0.00 in0.0 mm
04:10 PM 57.4°F14.1°C 40.9°F4.9°C 54% 2.2 mph S3.5 kmh S 5.4 mph8.7 kmh 30.63 in1037.3 mb 0.00 in0.0 mm 0.00 in0.0 mm 0.00 in0.0 mm
04:15 PM 57.4°F14.1°C 41.3°F5.2°C 55% 4.0 mph SSW6.4 kmh SSW 5.1 mph8.2 kmh 30.63 in1037.3 mb 0.00 in0.0 mm 0.00 in0.0 mm 0.00 in0.0 mm
04:20 PM 57.4°F14.1°C 41.3°F5.2°C 55% 2.9 mph SW4.7 kmh SW 8.9 mph14.3 kmh 30.63 in1037.3 mb 0.00 in0.0 mm 0.00 in0.0 mm 0.00 in0.0 mm
04:25 PM 57.0°F13.9°C 41.0°F5.0°C 55% 2.2 mph SW3.5 kmh SW 8.9 mph14.3 kmh 30.63 in1037.3 mb 0.00 in0.0 mm 0.00 in0.0 mm 0.00 in0.0 mm
04:30 PM 57.0°F13.9°C 41.0°F5.0°C 55% 5.8 mph SW9.3 kmh SW 6.9 mph11.1 kmh 30.63 in1037.3 mb 0.00 in0.0 mm 0.00 in0.0 mm 0.00 in0.0 mm
04:35 PM 56.5°F13.6°C 40.9°F4.9°C 56% 2.7 mph SW4.3 kmh SW 7.6 mph12.2 kmh 30.63 in1037.3 mb 0.00 in0.0 mm 0.00 in0.0 mm 0.00 in0.0 mm
04:40 PM 56.1°F13.4°C 40.6°F4.8°C 56% 4.0 mph SW6.4 kmh SW 7.6 mph12.2 kmh 30.63 in1037.3 mb 0.00 in0.0 mm 0.00 in0.0 mm 0.00 in0.0 mm
04:45 PM 56.1°F13.4°C 41.0°F5.0°C 57% 4.7 mph SW7.6 kmh SW 6.7 mph10.8 kmh 30.63 in1037.3 mb 0.00 in0.0 mm 0.00 in0.0 mm 0.00 in0.0 mm
04:50 PM 55.9°F13.3°C 40.9°F4.9°C 57% 2.5 mph SW4.0 kmh SW 7.6 mph12.2 kmh 30.63 in1037.3 mb 0.00 in0.0 mm 0.00 in0.0 mm 0.00 in0.0 mm
04:55 PM 55.8°F13.2°C 40.7°F4.8°C 57% 2.9 mph SW4.7 kmh SW 7.6 mph12.2 kmh 30.63 in1037.3 mb 0.00 in0.0 mm 0.00 in0.0 mm 0.00 in0.0 mm
05:00 PM 55.8°F13.2°C 40.7°F4.8°C 57% 3.8 mph SW6.1 kmh SW 7.4 mph11.9 kmh 30.63 in1037.3 mb 0.00 in0.0 mm 0.00 in0.0 mm 0.00 in0.0 mm
05:05 PM 55.2°F12.9°C 41.1°F5.1°C 59% 2.7 mph SW4.3 kmh SW 7.4 mph11.9 kmh 30.63 in1037.3 mb 0.00 in0.0 mm 0.00 in0.0 mm 0.00 in0.0 mm
05:10 PM 55.0°F12.8°C 41.4°F5.2°C 60% 2.9 mph SW4.7 kmh SW 6.7 mph10.8 kmh 30.63 in1037.3 mb 0.00 in0.0 mm 0.00 in0.0 mm 0.00 in0.0 mm
05:15 PM 55.0°F12.8°C 40.9°F4.9°C 59% 2.0 mph SW3.2 kmh SW 5.1 mph8.2 kmh 30.63 in1037.3 mb 0.00 in0.0 mm 0.00 in0.0 mm 0.00 in0.0 mm
05:20 PM 55.0°F12.8°C 41.4°F5.2°C 60% 1.6 mph SW2.6 kmh SW 4.9 mph7.9 kmh 30.64 in1037.6 mb 0.00 in0.0 mm 0.00 in0.0 mm 0.00 in0.0 mm
05:25 PM 55.0°F12.8°C 41.4°F5.2°C 60% 3.1 mph SW5.0 kmh SW 4.7 mph7.6 kmh 30.63 in1037.3 mb 0.00 in0.0 mm 0.00 in0.0 mm 0.00 in0.0 mm
05:30 PM 54.7°F12.6°C 41.1°F5.1°C 60% 2.5 mph SW4.0 kmh SW 3.6 mph5.8 kmh 30.63 in1037.3 mb 0.00 in0.0 mm 0.00 in0.0 mm 0.00 in0.0 mm
05:35 PM 54.7°F12.6°C 41.1°F5.1°C 60% Calm Calm 3.6 mph5.8 kmh 30.64 in1037.6 mb 0.00 in0.0 mm 0.00 in0.0 mm 0.00 in0.0 mm
05:40 PM 55.0°F12.8°C 41.4°F5.2°C 60% Calm Calm 4.0 mph6.4 kmh 30.64 in1037.6 mb 0.00 in0.0 mm 0.00 in0.0 mm 0.00 in0.0 mm
05:45 PM 55.0°F12.8°C 41.4°F5.2°C 60% 1.3 mph NE2.1 kmh NE 4.0 mph6.4 kmh 30.64 in1037.6 mb 0.00 in0.0 mm 0.00 in0.0 mm 0.00 in0.0 mm
05:50 PM 54.9°F12.7°C 41.2°F5.1°C 60% Calm Calm 1.6 mph2.6 kmh 30.64 in1037.6 mb 0.00 in0.0 mm 0.00 in0.0 mm 0.00 in0.0 mm
05:55 PM 54.7°F12.6°C 41.5°F5.3°C 61% Calm Calm 2.7 mph4.3 kmh 30.64 in1037.6 mb 0.00 in0.0 mm 0.00 in0.0 mm 0.00 in0.0 mm
06:00 PM 54.3°F12.4°C 41.1°F5.1°C 61% Calm Calm 2.7 mph4.3 kmh 30.64 in1037.6 mb 0.00 in0.0 mm 0.00 in0.0 mm 0.00 in0.0 mm
06:05 PM 54.1°F12.3°C 41.8°F5.4°C 63% Calm Calm 2.5 mph4.0 kmh 30.64 in1037.6 mb 0.00 in0.0 mm 0.00 in0.0 mm 0.00 in0.0 mm
06:10 PM 54.0°F12.2°C 42.0°F5.6°C 64% Calm Calm 2.5 mph4.0 kmh 30.64 in1037.6 mb 0.00 in0.0 mm 0.00 in0.0 mm 0.00 in0.0 mm
06:15 PM 53.8°F12.1°C 42.2°F5.7°C 65% 2.0 mph NNE3.2 kmh NNE 4.7 mph7.6 kmh 30.64 in1037.6 mb 0.00 in0.0 mm 0.00 in0.0 mm 0.00 in0.0 mm
06:20 PM 53.2°F11.8°C 41.7°F5.4°C 66% 1.6 mph NE2.6 kmh NE 4.7 mph7.6 kmh 30.64 in1037.6 mb 0.00 in0.0 mm 0.00 in0.0 mm 0.00 in0.0 mm
06:25 PM 52.9°F11.6°C 41.8°F5.4°C 66% Calm Calm 2.5 mph4.0 kmh 30.64 in1037.6 mb 0.00 in0.0 mm 0.00 in0.0 mm 0.00 in0.0 mm
06:30 PM 52.7°F11.5°C 41.6°F5.3°C 66% Calm Calm 1.6 mph2.6 kmh 30.64 in1037.6 mb 0.00 in0.0 mm 0.00 in0.0 mm 0.00 in0.0 mm
06:35 PM 52.7°F11.5°C 41.6°F5.3°C 66% Calm Calm 1.3 mph2.1 kmh 30.64 in1037.6 mb 0.00 in0.0 mm 0.00 in0.0 mm 0.00 in0.0 mm
06:40 PM 52.5°F11.4°C 42.3°F5.7°C 68% 1.1 mph SW1.8 kmh SW 2.2 mph3.5 kmh 30.64 in1037.6 mb 0.00 in0.0 mm 0.00 in0.0 mm 0.00 in0.0 mm
06:45 PM 52.3°F11.3°C 42.1°F5.6°C 68% 1.3 mph SW2.1 kmh SW 2.2 mph3.5 kmh 30.64 in1037.6 mb 0.00 in0.0 mm 0.00 in0.0 mm 0.00 in0.0 mm
06:50 PM 52.0°F11.1°C 42.2°F5.7°C 69% Calm Calm 2.2 mph3.5 kmh 30.64 in1037.6 mb 0.00 in0.0 mm 0.00 in0.0 mm 0.00 in0.0 mm
06:55 PM 51.8°F11.0°C 42.0°F5.6°C 69% Calm Calm 2.0 mph3.2 kmh 30.64 in1037.6 mb 0.00 in0.0 mm 0.00 in0.0 mm 0.00 in0.0 mm
07:00 PM 51.6°F10.9°C 41.8°F5.4°C 69% Calm Calm 2.2 mph3.5 kmh 30.64 in1037.6 mb 0.00 in0.0 mm 0.00 in0.0 mm 0.00 in0.0 mm
07:05 PM 51.4°F10.8°C 42.1°F5.6°C 70% 4.0 mph SSW6.4 kmh SSW 4.0 mph6.4 kmh 30.64 in1037.6 mb 0.00 in0.0 mm 0.00 in0.0 mm 0.00 in0.0 mm
07:10 PM 51.1°F10.6°C 41.7°F5.4°C 70% 1.8 mph SSW2.9 kmh SSW 4.0 mph6.4 kmh 30.64 in1037.6 mb 0.00 in0.0 mm 0.00 in0.0 mm 0.00 in0.0 mm
07:15 PM 50.9°F10.5°C 41.5°F5.3°C 70% 1.1 mph SSW1.8 kmh SSW 4.0 mph6.4 kmh 30.65 in1037.9 mb 0.00 in0.0 mm 0.00 in0.0 mm 0.00 in0.0 mm
07:20 PM 50.7°F10.4°C 41.4°F5.2°C 70% 1.6 mph SSW2.6 kmh SSW 2.5 mph4.0 kmh 30.65 in1037.9 mb 0.00 in0.0 mm 0.00 in0.0 mm 0.00 in0.0 mm
07:25 PM 50.7°F10.4°C 41.4°F5.2°C 70% Calm Calm 2.7 mph4.3 kmh 30.65 in1037.9 mb 0.00 in0.0 mm 0.00 in0.0 mm 0.00 in0.0 mm
07:30 PM 50.5°F10.3°C 41.2°F5.1°C 70% 2.5 mph SSW4.0 kmh SSW 3.8 mph6.1 kmh 30.65 in1037.9 mb 0.00 in0.0 mm 0.00 in0.0 mm 0.00 in0.0 mm
07:35 PM 50.4°F10.2°C 41.3°F5.2°C 71% 1.1 mph SSW1.8 kmh SSW 3.8 mph6.1 kmh 30.65 in1037.9 mb 0.00 in0.0 mm 0.00 in0.0 mm 0.00 in0.0 mm
07:40 PM 50.2°F10.1°C 41.2°F5.1°C 71% 4.0 mph SSW6.4 kmh SSW 4.9 mph7.9 kmh 30.66 in1038.3 mb 0.00 in0.0 mm 0.00 in0.0 mm 0.00 in0.0 mm
07:45 PM 50.2°F10.1°C 41.2°F5.1°C 71% 1.3 mph SSW2.1 kmh SSW 8.1 mph13.0 kmh 30.66 in1038.3 mb 0.00 in0.0 mm 0.00 in0.0 mm 0.00 in0.0 mm
07:50 PM 50.4°F10.2°C 41.3°F5.2°C 71% 2.2 mph SW3.5 kmh SW 8.1 mph13.0 kmh 30.66 in1038.3 mb 0.00 in0.0 mm 0.00 in0.0 mm 0.00 in0.0 mm
07:55 PM 50.4°F10.2°C 41.3°F5.2°C 71% 1.6 mph SW2.6 kmh SW 2.9 mph4.7 kmh 30.66 in1038.3 mb 0.00 in0.0 mm 0.00 in0.0 mm 0.00 in0.0 mm
08:00 PM 50.2°F10.1°C 41.2°F5.1°C 71% Calm Calm 4.0 mph6.4 kmh 30.66 in1038.3 mb 0.00 in0.0 mm 0.00 in0.0 mm 0.00 in0.0 mm
08:05 PM 49.8°F9.9°C 40.8°F4.9°C 71% 1.8 mph SSW2.9 kmh SSW 4.0 mph6.4 kmh 30.66 in1038.3 mb 0.00 in0.0 mm 0.00 in0.0 mm 0.00 in0.0 mm
08:10 PM 50.0°F10.0°C 40.6°F4.8°C 70% Calm Calm 2.5 mph4.0 kmh 30.67 in1038.6 mb 0.00 in0.0 mm 0.00 in0.0 mm 0.00 in0.0 mm
08:15 PM 49.8°F9.9°C 40.8°F4.9°C 71% Calm Calm 2.5 mph4.0 kmh 30.67 in1038.6 mb 0.00 in0.0 mm 0.00 in0.0 mm 0.00 in0.0 mm
08:20 PM 49.8°F9.9°C 40.8°F4.9°C 71% Calm Calm 0.9 mph1.4 kmh 30.67 in1038.6 mb 0.00 in0.0 mm 0.00 in0.0 mm 0.00 in0.0 mm
08:25 PM 49.8°F9.9°C 40.8°F4.9°C 71% Calm Calm 1.3 mph2.1 kmh 30.67 in1038.6 mb 0.00 in0.0 mm 0.00 in0.0 mm 0.00 in0.0 mm
08:30 PM 49.8°F9.9°C 40.8°F4.9°C 71% Calm Calm 1.3 mph2.1 kmh 30.67 in1038.6 mb 0.00 in0.0 mm 0.00 in0.0 mm 0.00 in0.0 mm
08:35 PM 50.2°F10.1°C 39.6°F4.2°C 67% 7.8 mph SSW12.6 kmh SSW 9.2 mph14.8 kmh 30.67 in1038.6 mb 0.00 in0.0 mm 0.00 in0.0 mm 0.00 in0.0 mm
08:40 PM 52.2°F11.2°C 39.5°F4.2°C 62% 6.0 mph SSW9.7 kmh SSW 11.6 mph18.7 kmh 30.67 in1038.6 mb 0.00 in0.0 mm 0.00 in0.0 mm 0.00 in0.0 mm
08:45 PM 52.9°F11.6°C 39.8°F4.3°C 61% 6.7 mph SSW10.8 kmh SSW 13.0 mph20.9 kmh 30.67 in1038.6 mb 0.00 in0.0 mm 0.00 in0.0 mm 0.00 in0.0 mm
08:50 PM 53.2°F11.8°C 39.3°F4.1°C 59% 6.7 mph SSW10.8 kmh SSW 13.0 mph20.9 kmh 30.67 in1038.6 mb 0.00 in0.0 mm 0.00 in0.0 mm 0.00 in0.0 mm
08:55 PM 53.4°F11.9°C 39.5°F4.2°C 59% 5.6 mph SSW9.0 kmh SSW 12.8 mph20.6 kmh 30.68 in1038.9 mb 0.00 in0.0 mm 0.00 in0.0 mm 0.00 in0.0 mm
09:00 PM 53.2°F11.8°C 39.3°F4.1°C 59% 7.8 mph SSW12.6 kmh SSW 9.2 mph14.8 kmh 30.67 in1038.6 mb 0.00 in0.0 mm 0.00 in0.0 mm 0.00 in0.0 mm
09:05 PM 53.2°F11.8°C 39.7°F4.3°C 60% 2.9 mph SW4.7 kmh SW 9.2 mph14.8 kmh 30.67 in1038.6 mb 0.00 in0.0 mm 0.00 in0.0 mm 0.00 in0.0 mm
09:10 PM 52.7°F11.5°C 39.2°F4.0°C 60% 2.2 mph SW3.5 kmh SW 8.9 mph14.3 kmh 30.68 in1038.9 mb 0.00 in0.0 mm 0.00 in0.0 mm 0.00 in0.0 mm
09:15 PM 52.5°F11.4°C 39.4°F4.1°C 61% 2.9 mph SW4.7 kmh SW 5.8 mph9.3 kmh 30.67 in1038.6 mb 0.00 in0.0 mm 0.00 in0.0 mm 0.00 in0.0 mm
09:20 PM 52.5°F11.4°C 39.4°F4.1°C 61% Calm Calm 10.1 mph16.3 kmh 30.67 in1038.6 mb 0.00 in0.0 mm 0.00 in0.0 mm 0.00 in0.0 mm
09:25 PM 52.5°F11.4°C 39.4°F4.1°C 61% 4.7 mph SW7.6 kmh SW 10.1 mph16.3 kmh 30.67 in1038.6 mb 0.00 in0.0 mm 0.00 in0.0 mm 0.00 in0.0 mm
09:30 PM 52.3°F11.3°C 39.2°F4.0°C 61% Calm Calm 8.1 mph13.0 kmh 30.67 in1038.6 mb 0.00 in0.0 mm 0.00 in0.0 mm 0.00 in0.0 mm
09:35 PM 52.3°F11.3°C 39.2°F4.0°C 61% 6.0 mph SW9.7 kmh SW 9.2 mph14.8 kmh 30.67 in1038.6 mb 0.00 in0.0 mm 0.00 in0.0 mm 0.00 in0.0 mm
09:40 PM 52.5°F11.4°C 39.0°F3.9°C 60% 7.8 mph SSW12.6 kmh SSW 11.4 mph18.3 kmh 30.67 in1038.6 mb 0.00 in0.0 mm 0.00 in0.0 mm 0.00 in0.0 mm
09:45 PM 52.5°F11.4°C 39.0°F3.9°C 60% 7.2 mph SSW11.6 kmh SSW 11.4 mph18.3 kmh 30.68 in1038.9 mb 0.00 in0.0 mm 0.00 in0.0 mm 0.00 in0.0 mm
09:50 PM 52.5°F11.4°C 39.0°F3.9°C 60% 8.9 mph SSW14.3 kmh SSW 12.1 mph19.5 kmh 30.68 in1038.9 mb 0.00 in0.0 mm 0.00 in0.0 mm 0.00 in0.0 mm
09:55 PM 52.5°F11.4°C 38.6°F3.7°C 59% 10.5 mph SSW16.9 kmh SSW 13.2 mph21.2 kmh 30.68 in1038.9 mb 0.00 in0.0 mm 0.00 in0.0 mm 0.00 in0.0 mm
10:00 PM 52.3°F11.3°C 38.8°F3.8°C 60% 1.3 mph SSW2.1 kmh SSW 13.2 mph21.2 kmh 30.68 in1038.9 mb 0.00 in0.0 mm 0.00 in0.0 mm 0.00 in0.0 mm
10:05 PM 52.0°F11.1°C 38.5°F3.6°C 60% 8.5 mph SSW13.7 kmh SSW 12.5 mph20.1 kmh 30.67 in1038.6 mb 0.00 in0.0 mm 0.00 in0.0 mm 0.00 in0.0 mm
10:10 PM 52.3°F11.3°C 38.8°F3.8°C 60% 5.4 mph SSW8.7 kmh SSW 13.4 mph21.6 kmh 30.67 in1038.6 mb 0.00 in0.0 mm 0.00 in0.0 mm 0.00 in0.0 mm
10:15 PM 52.3°F11.3°C 38.4°F3.6°C 59% 4.7 mph SSW7.6 kmh SSW 13.4 mph21.6 kmh 30.67 in1038.6 mb 0.00 in0.0 mm 0.00 in0.0 mm 0.00 in0.0 mm
10:20 PM 52.3°F11.3°C 38.4°F3.6°C 59% 4.0 mph SSW6.4 kmh SSW 11.4 mph18.3 kmh 30.67 in1038.6 mb 0.00 in0.0 mm 0.00 in0.0 mm 0.00 in0.0 mm
10:25 PM 52.3°F11.3°C 38.4°F3.6°C 59% 4.7 mph SSW7.6 kmh SSW 11.4 mph18.3 kmh 30.68 in1038.9 mb 0.00 in0.0 mm 0.00 in0.0 mm 0.00 in0.0 mm
10:30 PM 51.6°F10.9°C 37.7°F3.2°C 59% 9.2 mph SW14.8 kmh SW 11.6 mph18.7 kmh 30.68 in1038.9 mb 0.00 in0.0 mm 0.00 in0.0 mm 0.00 in0.0 mm
10:35 PM 51.3°F10.7°C 37.8°F3.2°C 60% 2.5 mph SSW4.0 kmh SSW 11.6 mph18.7 kmh 30.68 in1038.9 mb 0.00 in0.0 mm 0.00 in0.0 mm 0.00 in0.0 mm
10:40 PM 50.9°F10.5°C 37.5°F3.1°C 60% 2.0 mph SW3.2 kmh SW 10.3 mph16.6 kmh 30.68 in1038.9 mb 0.00 in0.0 mm 0.00 in0.0 mm 0.00 in0.0 mm
10:45 PM 50.5°F10.3°C 37.6°F3.1°C 61% 3.8 mph WSW6.1 kmh WSW 6.5 mph10.5 kmh 30.67 in1038.6 mb 0.00 in0.0 mm 0.00 in0.0 mm 0.00 in0.0 mm
10:50 PM 50.2°F10.1°C 37.2°F2.9°C 61% 1.6 mph WSW2.6 kmh WSW 4.7 mph7.6 kmh 30.67 in1038.6 mb 0.00 in0.0 mm 0.00 in0.0 mm 0.00 in0.0 mm
10:55 PM 50.2°F10.1°C 37.2°F2.9°C 61% 2.9 mph WSW4.7 kmh WSW 6.0 mph9.7 kmh 30.67 in1038.6 mb 0.00 in0.0 mm 0.00 in0.0 mm 0.00 in0.0 mm
11:00 PM 50.4°F10.2°C 37.4°F3.0°C 61% 1.3 mph SW2.1 kmh SW 6.0 mph9.7 kmh 30.67 in1038.6 mb 0.00 in0.0 mm 0.00 in0.0 mm 0.00 in0.0 mm
11:05 PM 50.7°F10.4°C 37.7°F3.2°C 61% 1.3 mph SW2.1 kmh SW 9.4 mph15.1 kmh 30.67 in1038.6 mb 0.00 in0.0 mm 0.00 in0.0 mm 0.00 in0.0 mm
11:10 PM 50.7°F10.4°C 37.7°F3.2°C 61% 4.0 mph SW6.4 kmh SW 9.4 mph15.1 kmh 30.67 in1038.6 mb 0.00 in0.0 mm 0.00 in0.0 mm 0.00 in0.0 mm
11:15 PM 50.9°F10.5°C 37.5°F3.1°C 60% Calm Calm 9.2 mph14.8 kmh 30.67 in1038.6 mb 0.00 in0.0 mm 0.00 in0.0 mm 0.00 in0.0 mm
11:20 PM 51.1°F10.6°C 37.2°F2.9°C 59% 2.9 mph SW4.7 kmh SW 9.2 mph14.8 kmh 30.67 in1038.6 mb 0.00 in0.0 mm 0.00 in0.0 mm 0.00 in0.0 mm
11:25 PM 50.7°F10.4°C 36.9°F2.7°C 58% 4.9 mph SW7.9 kmh SW 11.2 mph18.0 kmh 30.67 in1038.6 mb 0.00 in0.0 mm 0.00 in0.0 mm 0.00 in0.0 mm
11:30 PM 50.9°F10.5°C 36.1°F2.3°C 57% 8.3 mph SW13.4 kmh SW 11.2 mph18.0 kmh 30.67 in1038.6 mb 0.00 in0.0 mm 0.00 in0.0 mm 0.00 in0.0 mm
11:35 PM 51.1°F10.6°C 35.9°F2.2°C 56% 10.7 mph SSW17.2 kmh SSW 14.8 mph23.8 kmh 30.67 in1038.6 mb 0.00 in0.0 mm 0.00 in0.0 mm 0.00 in0.0 mm
11:40 PM 51.4°F10.8°C 36.2°F2.3°C 56% 10.5 mph SSW16.9 kmh SSW 14.8 mph23.8 kmh 30.67 in1038.6 mb 0.00 in0.0 mm 0.00 in0.0 mm 0.00 in0.0 mm
11:45 PM 51.4°F10.8°C 35.7°F2.1°C 55% 9.6 mph SSW15.4 kmh SSW 15.4 mph24.8 kmh 30.67 in1038.6 mb 0.00 in0.0 mm 0.00 in0.0 mm 0.00 in0.0 mm
11:50 PM 51.3°F10.7°C 35.6°F2.0°C 55% 13.6 mph SSW21.9 kmh SSW 17.4 mph28.0 kmh 30.67 in1038.6 mb 0.00 in0.0 mm 0.00 in0.0 mm 0.00 in0.0 mm
11:55 PM 51.4°F10.8°C 35.7°F2.1°C 55% 12.8 mph SSW20.6 kmh SSW 17.4 mph28.0 kmh 30.67 in1038.6 mb 0.00 in0.0 mm 0.00 in0.0 mm 0.00 in0.0 mm